Perrysburg, Ohio
Current Conditions -  °F | °C
As of 2:53 PM on Sunday 23 Nov 2014 (Local Time) from KTDZ Reporting Station
Clear Clear  
Wind Chill: 58°   Ceiling: Unl
Heat Index: 58°   Visibility: 10mi
Dew Point: 45°   Wind: 13mph
Humidity: 62%   Direction: 150°SSE
Pressure: 29.73"   Gusts: NA
Location:  41.56°N, 83.63°W
Report Text: KTDZ 231953Z AUTO 15011KT 10SM CLR 14/07 A2973 RMK AO2 SLP066 T01440072 TSNO
Loading
Personal Weather Stations






























Interactive Weather Map New forecast layout! Learn more

10-Day Weather Forecast

Advertisements
Track Severe Weather on mobile